Kmdw taf. 130 knots. (Refer to figure 20 on page 338, and figure 12...

METAR Chicago Midway International Airport - KMDW/MDW. Chicago Mid

Study with Quizlet and memorize flashcards containing terms like (Refer to figure 12.) The wind direction and velocity at KJFK is from A 180 true at 4 knots. B 180 magnetic at 4 knots. C 040 true at 18 knots., (Refer to figure 12.) What are the current conditions depicted for Chicago Midway Airport (KMDW)? A Sky 700 feet overcast, visibility 1-1/2SM, rain. B Sky 7000 feet overcast, visibility ...1180. (Refer to Figure 12.) The wind direction and velocity at KJFK is from: A - 180 degrees true at 4 knots. 1181. (Refer to Figure 12.) what are the current conditions for Chicago Midway Airport (KMDW)? A - sky 700 feet overcast, visibility 1-1/2 SM, rain. 1182. (Refer to Figure 15.)Oct 11, 2023 · METAR Chicago O'hare International Airport - KORD/ORD. Chicago O'hare International Airport is a large airport in Illinois, United States. The airport is located at latitude 41.97728 and longitude -87.90784. The airport has 8 runways: 10L/28R, 9R/27L, 9C/27C, 4R/22L, 4L/22R, 9L/27R, 10C/28C and 10R/28L. The ICAO airport code of this field is KORD. KMDW - Chicago/Midway Intl, IL, US Issued at 0902 UTC 20 Sep 2023 Updated at 1030 UTC 20 Sep 2023 Potential Impact None Slight Moderate High NOTE: LAMP data beyond the time of the TAF data is denoted as LAMP in Type and colored magenta. Raw TAF KMDW 200902Z 2009/2112 20009KT P6SM SCT060 BKN100 FM201200 20009KT P6SM VCTS BKN060CBOct 11, 2023 · METAR Chicago O'hare International Airport - KORD/ORD. Chicago O'hare International Airport is a large airport in Illinois, United States. The airport is located at latitude 41.97728 and longitude -87.90784. The airport has 8 runways: 10L/28R, 9R/27L, 9C/27C, 4R/22L, 4L/22R, 9L/27R, 10C/28C and 10R/28L. The ICAO airport code of this field is KORD. TAF for: KMDW (Chicago/Midway Intl, IL, US) issued at 0853 UTC 11 Oct 2023: Text: KMDW 110853Z 1109/1212 24005KT P6SM FEW100 : Forecast period: …NOTE: LAMP data beyond the time of the TAF data is denoted as LAMP in Type and colored magenta. Raw TAF. KMDW 180540Z 1806/1912 34005KT P6SM SCT050. FM182000 11006KT P6SM SCT060. METAR Board. Radar Display. Forecast Discussion. For situational awareness. Not to be used for flight planning purposes.FM100000 29007KT P6SM BKN230. Page loaded: 15:40 UTC | 08:40 AM Pacific | 09:40 AM Mountain | 10:40 AM Central | 11:40 AM Eastern. Aviation Weather Center Homepage …1015 users online KMDW Chicago Midway International Airport Chicago, Illinois, USA GOING TO CHICAGO? Reserve a Hotel Room FAA INFORMATION EFFECTIVE 05 OCTOBER 2023 Location Airport Operations Airport Communications Nearby radio navigation aids Airport Services Runway Information Runway 13C/31C Runway 4R/22L Runway 4L/22R Runway 13L/31Rno significant weather observed at this time. METAR text: KMDW 100653Z 27006KT 10SM FEW100 07/M02 A2979 RMK AO2 SLP087 T00721017. Conditions at: KMDW (CHICAGO , IL, US) observed 0653 UTC 10 October 2023. Temperature: 7.2°C (45°F) Dewpoint: -1.7°C (29°F) [RH = 53%] TAF KADW 120900Z 1209/1315 VRB03KT 9999 SCT100 SCT250 QNH2988INS : Forecast period: 0900 to 1800 UTC 12 October 2023 Forecast type: FROM: standard forecast or significant change Winds: variable direction winds at 3 MPH (3 knots; 1.5 m/s) Visibility: 6 or more miles (10+ km) Ceiling: at least 12,000 feet AGL Clouds:METAR Home. Plot. Data. Board. Info. IDs: Format: Raw Decoded Include TAF. Data at: 1007 UTC 11 Oct 2023. Region: TOP. KATL 110952Z 00000KT 10SM BKN200 BKN250 18/13 A2991 RMK AO2 SLP121 T01780133 $.Latest MDW TAF Impacts Board. KMDW: Aviation Forecast Discussion . MDW. Default Runway is 13/31 MDW Observations (ITWS missing when terminal doppler down): ASOS ITWS KMDW (CHICAGO , IL, US) Text: KMDW 282320Z 2900/3006 04009KT P6SM BKN200 : Forecast period: 0000 to 0300 UTC 29 May 2023 Forecast type: FROM: standard forecast or significant change Winds: from the NE (40 degrees) at 10 MPH (9 knots; 4.6 m/s) Visibility: 6 or more miles (10+ km) Ceiling: 20000 feet AGLMETAR Chicago Midway International Airport - KMDW/MDW . Chicago Midway International Airport is a large airport in Illinois, United States. The airport is located at latitude 41.78594 and longitude -87.75253. The airport has 5 runways: 13C/31C, 4R/22L, 4L/22R, 13L/31R and 13R/31L.Impacts TAF Board. TAF Home. Plot. Data. Board. Info. For situational awareness. Not to be used for flight planning purposes. IDs: KMDW - Chicago/Midway Intl, IL, US. Issued at 0251 UTC 13 Nov 2022. Updated at 0321 UTC 13 Nov 2022. Potential Impact: None: Slight: Moderate: High: Time 0253Z 13/04Z 13/05Z 13/06Z 13/07Z 13/08ZImpacts TAF Board. TAF Home. Plot. Data. Board. Info. For situational awareness. Not to be used for flight planning purposes. IDs: KMDW - Chicago/Midway Intl, IL, US. Issued at …PAMR 280153Z 29004KT 10SM CLR 11/01 A2980 RMK AO2 SLP091 T01060006. PAMR 280053Z 30004KT 10SM CLR 11/M01 A2979 RMK AO2 SLP087 T01061006. PAMR 272353Z 00000KT 10SM CLR 11/M02 A2978 RMK AO2 SLP084 T01061017 10111 20039 53004. PAMR 272253Z 03005KT 10SM CLR 11/M02 A2977 RMK AO2 SLP082 T01061022.Chicago Midway International Airport is a large airport in Illinois, United States. The airport is located at latitude 41.78597 and longitude -87.75242. The airport has 5 runways: 13C/31C, 4R/22L, 4L/22R, 13L/31R and 13R/31L. The ICAO airport code of this field is KMDW. The local airport ID (FAA LID) of this airport is MDW.1 day ago · METAR KMSP 132353Z 06014G31KT 10SM -RA OVC015 09/07 A2991 RMK AO2 PK WND 05031/2349 SLP133 P0001 60057 T00940072 10094 20089 53018. Current weather is light rain.The wind is from direction 060° with a speed of 14 kt. Visibility is 10 mi. The ceiling, broken or more, is 1,500 ft. The temperature is 9 °C, with a wind chill of 4 °C. Raw TAF KMDW 200312Z 2003/2106 16009KT P6SM SCT080 OVC100 FM200800 20008KT P6SM SCT080 BKN200 TEMPO 2008/2012 6SM SHRA BKN070 FM202200 16007KT P6SM BKN200 METAR Board Radar Display Forecast Discussion. For situational awareness. Not to be used for flight planning purposes.Make your Flight Plan at SkyVector.com. SkyVector is a free online flight planner. Flight planning is easy on our large collection of Aeronautical Charts, including Sectional Charts, Approach Plates, IFR Enroute Charts, and Helicopter route charts. Weather data is always current, as are Jet Fuel Prices and avgas 100ll prices.Jul 30, 2013 · The remarks section for KMDW has RAB35 listed. This entry means rain began at 1835Z. 3467. (Refer to figure 12.) ... In the TAF from KOKC, the "FM (FROM) Group" is ... SPECI KMDW 121856Z 32005KT 1 ½SM RA OVC007 17/16 A2980 RMKRAB35 SPECI KJFK 121853Z 18004KT 1/2SM FG R04/2200 OVC005 20/18 A3006 ... In the TAF form KOKC, the "FM Group" is forecast for the hours from 1600Z to 2200Z with the wind from: Definition. 180 at 10 knots. AWS: Term.Denver International Airport is a large airport in Colorado, United States. The airport is located at latitude 39.86098 and longitude -104.67189. The airport has 6 runways: 16R/34L, 7/25, 8/26, 16L/34R, 17L/35R and 17R/35L. The ICAO airport code of this field is KDEN. The local airport ID (FAA LID) of this airport is DEN.The remarks section for KMDW has RAB35 listed. This entry means Answer. 14.3 Pilot Weather Report (PIREP) ... 14.5 Terminal Aerodrome Forecast (TAF) Terminal aerodrome forecasts (TAFs) are weather forecasts for selected airports with operating control towers around the country.METAR Home. Plot. Data. Board. Info. IDs: Format: Raw Decoded Include TAF. Data at: 0542 UTC 09 Oct 2023. KMDW 090453Z 32004KT 10SM CLR 08/03 A2985 RMK AO2 SLP110 T00830028. KMDW 090353Z 32003KT 10SM FEW070 FEW160 09/03 A2986 RMK AO2 SLP114 T00890033.Include TAF. Show METAR board. IDs: Search METAR Sites. ADDS Station Table. NCEI METAR Archive. Vietor Weather 2023 to obtain more information about this web site. Server ...This entry means. rain began at 1835Z. (fig 12) The wind direction and velocity at KJFK is from. 180 true at 4 knots. (fig 12) What are the current conditions depicted for Chicago Midway Airport (KMDW)? "Sky 700 feet overcast, visibility 1 « SM, rain". " (fig 12) What are the wind conditions at Wink, Texas (KINK)?"KMDW - Chicago/Midway Intl, IL, US Issued at 0902 UTC 20 Sep 2023 Updated at 1030 UTC 20 Sep 2023 Potential Impact None Slight Moderate High NOTE: LAMP data beyond the time of the TAF data is denoted as LAMP in Type and colored magenta. Raw TAF KMDW 200902Z 2009/2112 20009KT P6SM SCT060 BKN100 FM201200 20009KT P6SM VCTS BKN060CB 130 knots. (Refer to figure 20 on page 338, and figure 12 on page 339) what is the height of the tropopause over Kentucky. FL 340. Study Flashcards On Instrument 9 at Cram.com. Quickly memorize the terms, phrases and much more. Cram.com makes it easy to get the grade you want!This entry means. rain began at 1835Z. (fig 12) The wind direction and velocity at KJFK is from. 180 true at 4 knots. (fig 12) What are the current conditions depicted for Chicago Midway Airport (KMDW)? "Sky 700 feet overcast, visibility 1 « SM, rain". " (fig 12) What are the wind conditions at Wink, Texas (KINK)?"Study with Quizlet and memorize flashcards containing terms like A ceiling is defined as the hight of the, The station originating the following weather report has a field elevation of 1300 ft MSL. From the bottom of the overcast cloud layer, what is its thickness? (tops of OVC are reported at 3800 ft) SPECI KOKC 2228Z 28024G36KT 3/4SM BKN008 OVC020 28/23 A3000, the reporting station ...METAR KMDW 040453Z 14003KT 10SM BKN110 BKN140 08/02 A2996 RMK AO2 SLP146 T00830022. The wind is from direction 140° with a speed of 3 kt. Visibility is 10 mi. The ceiling, broken or more, is 11,000 ft. The temperature is 8 …METAR KMDW 191553Z 27006KT 10SM FEW040 OVC065 19/15 A2994 RMK AO2 SLP134 T01940150 $. The wind is from direction 270° with a speed of 6 kt. Visibility is 10 mi. The ceiling, broken or more, is 6,500 …Sep 27, 2023 · TAF ; NOTAM ; History ; Airport ; Statistics ... KMDW B) 2309261157 E) MDW RWY 13C/31C CLSD CANCELED September 26, 2023 06:57 - September 29, 2023 06:57 LT ... AVIATION WEATHER CENTER SCN23-79: Upgrade of Aviation Weather Center Website METAR Data METAR Home Plot Data Board Info IDs: Format: Raw Decoded Include TAF Data at: 0236 UTC 12 Oct 2023 Page loaded: 02:36 UTC | 07:36 PM Pacific | 08:36 PM Mountain | 09:36 PM Central | 10:36 PM EasternTAF KADW 250100Z 2501/2607 16006KT 9999 -SHRA SCT050 BKN150 QNH2988INS. Forecast period: 0100 to 0200 UTC 25 August 2023. Forecast type: FROM: standard forecast or significant change. Winds: from the SSE (160 degrees) at 7 MPH (6 knots; 3.1 m/s) Visibility: 6 or more sm (10+ km)KMDW - Chicago/Midway Intl, IL, US. ... Raw TAF KMDW 071120Z 0712/0818 30012G18KT P6SM FEW050 SCT100 FM080100 30005KT P6SM SCT080 SCT200 METAR Board Radar Display ... NOTE: LAMP data beyond the time of the TAF data is denoted as LAMP in Type and colored magenta. Raw TAF KMDW 190540Z 1906/2012 16005KT P6SM SCT100 BKN250 FM191100 19008KT 6SM -SHRA SCT050 OVC080 TEMPO 1914/1918 4SM RA BR SCT030 BKN050 FM191900 15012G20KT P6SM SCT070 OVC100 FM200000 14008KT P6SM BKN080 FM200800 20008KT P6SM SCT080 BKN250 METAR Board Radar Display Forecast Discussion Weather radar, wind and waves forecast for kiters, surfers, paragliders, pilots, sailors and anyone else. Worldwide animated weather map, with easy to use layers and precise spot forecast. METAR, TAF and NOTAMs for any airport in the World. SYNOP codes from weather stations and buoys. Forecast models ECMWF, GFS, NAM and NEMSOct 5, 2023 · 1015 users online KMDW Chicago Midway International Airport Chicago, Illinois, USA GOING TO CHICAGO? Reserve a Hotel Room FAA INFORMATION EFFECTIVE 05 OCTOBER 2023 Location Airport Operations Airport Communications Nearby radio navigation aids Airport Services Runway Information Runway 13C/31C Runway 4R/22L Runway 4L/22R Runway 13L/31R Include TAF. Show METAR board. IDs: Search METAR Sites. ADDS Station Table. NCEI METAR Archive. Vietor Weather 2023 to obtain more information about this web site. Server ...Oct 11, 2023 · TAF KADW 250100Z 2501/2607 16006KT 9999 -SHRA SCT050 BKN150 QNH2988INS. Forecast period: 0100 to 0200 UTC 25 August 2023. Forecast type: FROM: standard forecast or significant change. Winds: from the SSE (160 degrees) at 7 MPH (6 knots; 3.1 m/s) Visibility: 6 or more sm (10+ km) The remarks section for KMDW has RAB35 listed. This entry means... -METAR KINK 12185z 11012G18KT 15SM SKC 25/17 A3000. -METAR KBOI 121854z 13004KT 30SM SCT150 17/6 A3015. -METAR KLAX 121852z 25004KT 6SM BR SCT007 SCT250 16/15 A2991. -SPECI KMDW 121856z 32005KT 1 1/2SM RA OVC007 17/16 A2980 RMK …METAR/TAF Quiz METAR TAF. EN. ... SPECI KMDW 121856Z 32005KT 1 1/2SM RA OVC007 7/16 A2980 RMK RAB35.<br /> (This special report at Chicago Midway [KMDW] tells us the weather is getting worse,<br /> with the remarks indicating the rain began at 35 past the hour or 1835Z.METAR/Synop Information for KMDW (MDW) in CHICAGO MIDWAY AIRPORT, IL, United States. The following information is known about KMDW.Chicago Midway International Airport is a large airport in Illinois, United States. The airport is located at latitude 41.78594 and longitude -87.75253. The airport has 5 runways: 13C/31C, 4R/22L, 4L/22R, 13L/31R and 13R/31L. The ICAO airport code of this field is KMDW. The local airport ID (FAA LID) of this airport is MDW.Chicago Midway International Airport is a large airport in Illinois, United States. The airport is located at latitude 41.78597 and longitude -87.75242. The airport has 5 runways: 13C/31C, 4R/22L, 4L/22R, 13L/31R and 13R/31L. The ICAO airport code of this field is KMDW. The local airport ID (FAA LID) of this airport is MDW.Data at: 1101 UTC 11 Oct 2023. KMDW 111053Z 25005KT 10SM CLR 05/01 A2982 RMK AO2 SLP101 T00500006. KMDW 110853Z 1109/1212 24005KT P6SM FEW100. FM111900 23008KT P6SM VCSH SCT050 BKN100. FM112200 13006KT 6SM -SHRA SCT030 BKN050.Sep 10, 2023 · Chicago Midway International Airport is a large airport in Illinois, United States. The airport is located at latitude 41.78594 and longitude -87.75253. The airport has 5 runways: 13C/31C, 4R/22L, 4L/22R, 13L/31R and 13R/31L. The ICAO airport code of this field is KMDW. May 5, 2023 · Chicago Midway International Airport is a large airport in Illinois, United States. The airport is located at latitude 41.78597 and longitude -87.75242. The airport has 5 runways: 13C/31C, 4R/22L, 4L/22R, 13L/31R and 13R/31L. The ICAO airport code of this field is KMDW. The local airport ID (FAA LID) of this airport is MDW. KMDW (CHICAGO , IL, US) Text: KMDW 101120Z 1012/1118 28006KT P6SM SCT060 BKN100 : Forecast period: 1200 to 1600 UTC 10 October 2023 Forecast type: FROM: standard forecast or significant change Winds: from the W (280 degrees) at 7 MPH (6 knots; 3.1 m/s) Visibility: 6 or more miles (10+ km) Ceiling:latitude: 41-47-03N, longitude: 087-45-19W, elevation: 617 ft. Current weather observation. The report was made 24 minutes ago, at 08:53 UTC. Calm wind. Temperature 66 °F. Humidity 73 % Pressure 30.26 in. Hg. Visibility: 10 miles. Clear sky. Change units. METAR: KMDW 010853Z 00000KT 10SM CLR 19/14 A3026 RMK AO2 SLP239 T01890139 53008 $Chicago Midway International Airport is a large airport in Illinois, United States. The airport is located at latitude 41.78594 and longitude -87.75253. The airport has 5 runways: 13C/31C, 4R/22L, 4L/22R, 13L/31R and 13R/31L. The ICAO airport code of this field is KMDW. The local airport ID (FAA LID) of this airport is MDW.kmdw. active. Chicago, IL, US. 41.78, -87.75. Local Time: 7:00 pm. Elev: 617 ft. METAR. METAR. Imperial Metric. DashboardForecastMap. Imperial Metric. Latest ...KMDW - Chicago/Midway Intl, IL, US. Issued at 2321 UTC 10 Oct 2023. Updated at 2349 UTC 10 Oct 2023. Potential Impact. None. Slight. Moderate. High. NOTE: LAMP data beyond the time of the TAF data is denoted as LAMP in Type and colored magenta. Raw TAF. KMDW 102321Z 1100/1206 25006KT P6SM SCT080. FM111800 23008KT P6SM VCSH SCT050 BKN100.KMDW (CHICAGO , IL, US) Text: KMDW 101120Z 1012/1118 28006KT P6SM SCT060 BKN100 : Forecast period: 1200 to 1600 UTC 10 October 2023 Forecast type: FROM: standard forecast or significant change Winds: from the W (280 degrees) at 7 MPH (6 knots; 3.1 m/s) Visibility: 6 or more miles (10+ km) Ceiling:Complete aeronautical information about Chicago Midway International Airport (Chicago, IL, USA), including location, runways, taxiways, navaids, radio frequencies, FBO information, fuel prices, sunrise and sunset times, aerial photo, airport diagram.kmdw 091253z 32005kt 10sm few030 few080 07/00 a2984 rmk ao2 slp109 t00720000 kmdw 091120z 0912/1018 32006kt p6sm sct080 fm091600 30011g17kt p6sm few050 few250 fm092300 28006kt p6sm sct200 fm101600 29012g18kt p6sm few050 few250 kmsp 091253z 32006kt 10sm few200 03/01 a2998 rmk ao2 slp156 t00330011C) 111 degrees at 2 knots, peak gusts 18 knots. B) 110 degrees at 12 knots, peak gusts 18 knots. (Refer to figure 12.) The remarks section for KMDW has RAB35 listed. This entry means. A) blowing mist has reduced the visibility to 1-1/2 SM. B) rain began at 1835Z. C) the barometer has risen .35 inches Hg.METAR KMDW 110053Z 25009KT 10SM FEW060 SCT090 BKN250 26/19 A2977 RMK AO2 SLP071 T02560194. The wind is from direction 250° with a speed of 9 kt. Visibility is 10 mi. The ceiling, broken or more, is 25,000 ft. …BURLINGTON FLIGHT SERVICE STATION. NOTAMs facility: CEF (NOTAM-D service available) Attendance: SAT-SUN 0900-1700, ALL MON-FRI 0800-2300. Pattern altitude: RECTANGULAR TFC PAT: 1000 FT AGL LGT ACFT, 2000 FT AGL LRG/HVY ACFT; OVHD: 2500 FT AGL. Wind indicator: yes.METAR KMLI 152055Z 25006KT 1/2SM SN FZFG BKN008 OVC014 M05/M06 A2957 RMK A02 PRESFR SLP023 P0000 60000 T10501056 53017 · METAR KMDW 152045Z 23009KT 7/8SM -SN ...data at: 1017 utc 22 sep 2023. kmdw 220953z 00000kt 10sm bkn080 bkn100 19/18 a3017 rmk ao2 slp210 t01890178 $ kmdw 220856z 2209/2312 09006kt p6sm vcsh sct070 ovc100 tempo 2209/2210 4sm -shra sct035 bkn050 fm221400 14008kt p6sm bkn100 fm222200 08007kt p6sm few050 bkn100Refer to Figure 17.) Determine the wind and temperature aloft forecast for DEN at 9,000 feet. 230° true at 21 knots, temperature -4 °C. When speaking to a flight service weather briefer, you should state. whether the flight is VFR or IFR. Refer to Figure 15.) The only cloud type forecast in TAF reports is. METAR, TAF or SPECI. A METAR (METeorological Aerodrome Report) is an observation and provides information about the current weather. Sometimes a METAR also gives a short-term forecast. A TAF (Terminal Area Forecast) provides a forecast for a longer period, for example 8, 24 or 36 hours. In addition to the METAR and TAF, there is also a SPECI ...overcast at 2,000 feet during the forecast period between 2200Z and 2400Z. (Refer to Figure 18.) According to the Weather Depiction Chart, the weather for a flight from southern Michigan to north Indiana is ceilings. greater than 3, 000 feet and visibility greater than 5 miles. What should pilots state initially when telephoning a weather ...KMDW - Chicago/Midway Intl, IL, US Issued at 2321 UTC 10 Oct 2023 Updated at 2349 UTC 10 Oct 2023 Potential Impact None Slight Moderate High NOTE: LAMP data beyond the time of the TAF data is denoted as LAMP in Type and colored magenta. Raw TAF KMDW 102321Z 1100/1206 25006KT P6SM SCT080 FM111800 23008KT P6SM VCSH SCT050 BKN100 C) 111 degrees at 2 knots, peak gusts 18 knots. B) 110 degrees at 12 knots, peak gusts 18 knots. (Refer to figure 12.) The remarks section for KMDW has RAB35 listed. This entry means. A) blowing mist has reduced the visibility to 1-1/2 SM. B) rain began at 1835Z. C) the barometer has risen .35 inches Hg.14.5 Terminal Aerodrome Forecast (TAF) Terminal aerodrome forecasts (TAFs) are weather forecasts for selected airports with operating control towers around the country. Cumulonimbus clouds (CB) are the only cloud type forecast in TAFs as these are storm clouds and could greatly effect flight planning to that airport.Include TAF. Show METAR board. IDs: Search METAR Sites. ADDS Station Table. NCEI METAR Archive. Vietor Weather 2023 to obtain more information about this web site. Server: devoweb ...The remarks section for KMDW has RAB35 listed. This entry means rain began at 1835Z. 3467. (Refer to figure 12.) ... In the TAF from KOKC, the "FM (FROM) Group" is forecast for the hours from 1600Z to 2200Z with the wind from 180° at 10 knots. 3484. (Refer to figure 15.). PAMR 280153Z 29004KT 10SM CLR 11/01 A2980 Rkmdw 141353z 05013g25kt 2 1/2sm -ra br bkn007 bkn011 ovc024 12/10 KMDW - Chicago/Midway Intl, IL, US. Issued at 1451 UTC 23 Sep 2023. Updated at 1658 UTC 23 Sep 2023. Potential Impact: None: Slight: Moderate: High: Time <<24/17Z 24/18Z 24/19Z 24/20Z ... Raw TAF KMDW 231451Z 2315/2418 11008KT P6SM SCT100 BKN250 METAR Board Radar Display Forecast Discussion. For situational awareness.TAF for: KMDW (Chicago/Midway Intl, IL, US) issued at 1120 UTC 06 Aug 2023 ... KMDW 061120Z 0612/0718 05015G22KT P6SM VCSH BKN012 OVC025 : Forecast period: 1200 to 1900 UTC 06 August 2023: Forecast type: FROM: standard forecast or significant change: Winds: from the NE (50 degrees) at 17 MPH (15 knots; 7.7 m/s) … METAR Chicago Midway International Airport - KMDW/MDW. Chicago Mid TAF Home. Plot. Data. Board. Info. For situational awareness. Not to be used for flight planning purposes. IDs: KMDW - Chicago/Midway Intl, IL, US. Issued at 0901 UTC ...Impacts TAF Board. TAF Home. Plot. Data. Board. Info. For situational awareness. Not to be used for flight planning purposes. IDs: KMDW - Chicago/Midway Intl, IL, US. Issued at 0525 UTC 01 Jul 2023. Updated at 0749 UTC 01 Jul 2023. Potential Impact: None: Slight: Moderate: High: Time 0653Z 01/08Z 01/09Z 01/10Z 01/11Z 01/12Z METAR Data. METAR Home. Plot. Data. Board. Info. IDs: Format: Raw Deco...

Continue Reading